Карточка аэропорта URSS

Внимание!
Информация на этой странице в стадии наполнения.
Если вы не увидели какой-то информации, или заметили неточность - пожалуйста сообщите нам!
Спасибо!
Команда RU-STAFF
Название аэропортаСочи
Название аэропорта (англ.)Sochi
Превышение89 ft. (27.1 m.)
Координаты43°26.634', 39°56.55'
Высота перехода13000 ft
Эшелон переходаQNH>=977hPa: FL150; QNH<977hPa: FL160
Коды ответчика1060-1077
Зона ОрВДРостов-на-Дону РПИ (URRV)
Данные METARURSS 280630Z 04002MPS 010V080 9999 NSC 09/M02 Q1025 R02/010070 R06/010070 NOSIG RMK R06/09003MPS QFE767
Проноз погоды (TAF)URSS 280456Z 2806/2906 05004G09MPS 9999 NSC BECMG 2807/2808 18003G08MPS FEW030 BECMG 2810/2812 23004G09MPS BECMG 2815/2816 05004G09MPS NSC TEMPO 2818/2906 SCT010
NOTAMshow/hide NOTAM
AWOS   TABLE

Информация о ВПП

ВПП Длина ВПП (м.) Покрытие Курс ВПП Частота ILS
022500Цементобетон22110.5
202500Цементобетон202 
062890Цементобетон58111.1
242890Цементобетон238 

Диспетчерские позиции

Позывной Наименование органа УВД Частота
URSS_FM1119.000
URSS_DELСочи-Деливери132.700
URSS_R_APPСочи-Круг119.700
URSS_APPСочи-Подход124.600
URSS_GNDСочи-Руление119.000
URSS_TWRСочи-Старт121.200



Спутниковое изображение